Time;durP1;ratioP1;P1;durP2;ratioP2;P2;SDS_P1;SDS_P2;PMS_P1;PMS_P2;Temp;Humidity;BMP_temperature;BMP_pressure;BME280_temperature;BME280_humidity;BME280_pressure;Samples;Min_cycle;Max_cycle;Signal;HPM_P1;HPM_P2
2022/03/20 00:00:36;;;;;;;44.33;24.88;;;;;;;;;;5115798;28;20409;-79
2022/03/20 00:03:09;;;;;;;41.75;24.58;;;;;;;;;;5129475;28;20076;-79
2022/03/20 00:05:38;;;;;;;46.25;24.85;;;;;;;;;;5109669;28;20039;-79
2022/03/20 00:08:08;;;;;;;45.38;24.83;;;;;;;;;;5112932;28;20032;-79
2022/03/20 00:10:34;;;;;;;43.47;25.95;;;;;;;;;;5127952;28;20081;-79
2022/03/20 00:13:02;;;;;;;52.65;25.02;;;;;;;;;;5128201;28;20046;-80
2022/03/20 00:15:30;;;;;;;44.60;24.77;;;;;;;;;;5126832;28;20054;-80
2022/03/20 00:17:56;;;;;;;43.40;25.70;;;;;;;;;;5128329;28;20039;-78
2022/03/20 00:20:22;;;;;;;42.65;24.90;;;;;;;;;;5110432;28;20403;-80
2022/03/20 00:22:48;;;;;;;48.25;25.13;;;;;;;;;;5123029;28;20136;-80
2022/03/20 00:25:14;;;;;;;45.47;25.30;;;;;;;;;;5106030;28;20046;-79
2022/03/20 00:27:40;;;;;;;42.08;25.65;;;;;;;;;;5122759;28;20051;-78
2022/03/20 00:30:06;;;;;;;44.40;26.02;;;;;;;;;;5123376;28;20043;-79
2022/03/20 00:32:32;;;;;;;43.60;25.95;;;;;;;;;;5106616;28;20031;-78
2022/03/20 00:34:59;;;;;;;43.20;24.92;;;;;;;;;;5126189;28;20065;-80
2022/03/20 00:37:26;;;;;;;41.60;24.42;;;;;;;;;;5108840;28;20093;-81
2022/03/20 00:39:52;;;;;;;45.50;24.70;;;;;;;;;;5129060;28;20043;-79
2022/03/20 00:42:18;;;;;;;46.03;25.85;;;;;;;;;;5133577;28;20358;-80
2022/03/20 00:44:44;;;;;;;47.53;26.48;;;;;;;;;;5133891;28;20097;-81
2022/03/20 00:47:11;;;;;;;44.63;25.42;;;;;;;;;;5109735;28;20047;-81
2022/03/20 00:49:37;;;;;;;44.35;25.38;;;;;;;;;;5133351;28;20470;-81
2022/03/20 00:52:04;;;;;;;42.40;24.73;;;;;;;;;;5129752;28;20435;-81
2022/03/20 00:54:30;;;;;;;44.17;24.73;;;;;;;;;;5126740;28;20415;-81
2022/03/20 00:56:58;;;;;;;40.30;24.90;;;;;;;;;;5114390;28;20065;-80
2022/03/20 00:59:23;;;;;;;46.53;24.60;;;;;;;;;;5133865;28;20039;-79
2022/03/20 01:01:49;;;;;;;43.75;25.88;;;;;;;;;;5133077;28;20066;-80
2022/03/20 01:04:16;;;;;;;46.33;25.17;;;;;;;;;;5136163;28;20047;-80
2022/03/20 01:06:42;;;;;;;48.58;26.08;;;;;;;;;;5128709;28;20054;-81
2022/03/20 01:09:08;;;;;;;46.88;25.75;;;;;;;;;;5108610;28;20043;-81
2022/03/20 01:11:35;;;;;;;43.85;25.73;;;;;;;;;;5118437;28;20011;-79
2022/03/20 01:14:01;;;;;;;41.33;25.50;;;;;;;;;;5136533;28;20039;-78
2022/03/20 01:16:27;;;;;;;45.30;25.77;;;;;;;;;;5133874;28;20114;-81
2022/03/20 01:18:53;;;;;;;43.78;25.70;;;;;;;;;;5121951;28;20075;-80
2022/03/20 01:21:18;;;;;;;44.03;24.48;;;;;;;;;;5122664;28;20040;-81
2022/03/20 01:23:45;;;;;;;46.80;26.50;;;;;;;;;;5122879;28;20059;-80
2022/03/20 01:26:12;;;;;;;46.28;25.27;;;;;;;;;;5104799;28;20044;-81
2022/03/20 01:28:38;;;;;;;45.20;26.25;;;;;;;;;;5122485;28;20470;-80
2022/03/20 01:31:04;;;;;;;49.83;26.52;;;;;;;;;;5108072;28;20039;-80
2022/03/20 01:33:30;;;;;;;47.65;26.23;;;;;;;;;;5124622;28;20044;-81
2022/03/20 01:35:56;;;;;;;47.78;25.45;;;;;;;;;;5121821;28;20112;-80
2022/03/20 01:38:22;;;;;;;43.47;25.63;;;;;;;;;;5121529;28;20042;-80
2022/03/20 01:40:48;;;;;;;47.78;25.10;;;;;;;;;;5124132;28;20035;-79
2022/03/20 01:43:15;;;;;;;46.85;25.05;;;;;;;;;;5105965;28;20043;-78
2022/03/20 01:45:41;;;;;;;47.67;25.75;;;;;;;;;;5110429;28;20066;-78
2022/03/20 01:48:07;;;;;;;43.22;25.85;;;;;;;;;;5134906;28;20035;-79
2022/03/20 01:50:33;;;;;;;47.58;26.23;;;;;;;;;;5116220;28;20043;-79
2022/03/20 01:52:59;;;;;;;47.80;25.00;;;;;;;;;;5115726;28;20046;-80
2022/03/20 01:55:25;;;;;;;42.88;24.95;;;;;;;;;;5111112;28;20087;-78
2022/03/20 01:57:51;;;;;;;44.70;25.02;;;;;;;;;;5129294;28;20066;-82
2022/03/20 02:00:18;;;;;;;44.90;24.85;;;;;;;;;;5110566;28;20051;-78
2022/03/20 02:02:45;;;;;;;41.58;24.60;;;;;;;;;;5121530;28;20055;-78
2022/03/20 02:05:11;;;;;;;44.33;23.75;;;;;;;;;;5138529;28;20063;-80
2022/03/20 02:07:38;;;;;;;40.83;22.60;;;;;;;;;;5133078;28;20035;-81
2022/03/20 02:10:07;;;;;;;41.70;23.73;;;;;;;;;;5106481;28;20371;-82
2022/03/20 02:12:34;;;;;;;47.22;23.33;;;;;;;;;;5104902;28;20036;-82
2022/03/20 02:15:01;;;;;;;46.72;24.33;;;;;;;;;;5105621;28;20061;-80
2022/03/20 02:17:28;;;;;;;42.83;23.80;;;;;;;;;;5125609;28;20059;-80
2022/03/20 02:19:55;;;;;;;45.13;24.13;;;;;;;;;;5111119;28;20039;-79
2022/03/20 02:22:21;;;;;;;40.88;23.98;;;;;;;;;;5110432;28;20117;-78
2022/03/20 02:24:49;;;;;;;47.78;24.00;;;;;;;;;;5134624;28;20047;-79
2022/03/20 02:27:19;;;;;;;41.92;24.40;;;;;;;;;;5116536;28;20056;-79
2022/03/20 02:29:56;;;;;;;44.72;24.35;;;;;;;;;;5131077;28;20070;-79
2022/03/20 02:32:29;;;;;;;44.17;23.98;;;;;;;;;;5113457;28;20448;-78
2022/03/20 02:34:59;;;;;;;41.65;24.08;;;;;;;;;;5124230;28;20079;-80
2022/03/20 02:37:25;;;;;;;45.30;24.15;;;;;;;;;;5129865;28;20119;-80
2022/03/20 02:39:53;;;;;;;42.85;23.85;;;;;;;;;;5113106;28;20042;-80
2022/03/20 02:42:19;;;;;;;41.42;24.20;;;;;;;;;;5112825;28;20050;-80
2022/03/20 02:44:56;;;;;;;45.33;24.73;;;;;;;;;;5127026;28;20044;-81
2022/03/20 02:47:23;;;;;;;39.60;22.83;;;;;;;;;;5113449;28;20467;-80
2022/03/20 02:49:56;;;;;;;41.08;24.00;;;;;;;;;;5106778;28;20112;-81
2022/03/20 02:52:29;;;;;;;43.03;23.33;;;;;;;;;;5121380;28;20122;-81
2022/03/20 02:54:56;;;;;;;44.47;24.60;;;;;;;;;;5121188;28;20046;-81
2022/03/20 02:57:22;;;;;;;42.67;23.60;;;;;;;;;;5122825;28;20032;-80
2022/03/20 02:59:49;;;;;;;41.70;24.10;;;;;;;;;;5103183;28;20114;-80
2022/03/20 03:02:15;;;;;;;45.20;23.90;;;;;;;;;;5102413;28;20039;-81
2022/03/20 03:04:41;;;;;;;44.00;24.08;;;;;;;;;;5120707;28;20057;-81
2022/03/20 03:07:08;;;;;;;44.42;24.13;;;;;;;;;;5105040;28;20097;-79
2022/03/20 03:12:18;;;;;;;40.85;23.20;;;;;;;;;;5124699;28;20031;-80
2022/03/20 03:17:28;;;;;;;44.13;23.85;;;;;;;;;;5133248;28;20015;-80
2022/03/20 03:19:57;;;;;;;41.75;23.23;;;;;;;;;;5135597;28;20039;-80
2022/03/20 03:22:26;;;;;;;44.60;24.20;;;;;;;;;;5118058;28;20095;-79
2022/03/20 03:24:53;;;;;;;41.55;23.23;;;;;;;;;;5112570;28;20067;-78
2022/03/20 03:27:19;;;;;;;41.65;22.95;;;;;;;;;;5118965;28;20039;-78
2022/03/20 03:29:45;;;;;;;41.53;22.90;;;;;;;;;;5116264;28;20047;-81
2022/03/20 03:32:12;;;;;;;43.15;23.50;;;;;;;;;;5116269;28;20040;-81
2022/03/20 03:37:22;;;;;;;40.67;23.48;;;;;;;;;;5124579;28;20035;-81
2022/03/20 03:39:48;;;;;;;38.92;22.23;;;;;;;;;;5119508;28;20466;-81
2022/03/20 03:42:14;;;;;;;45.15;23.95;;;;;;;;;;5119275;28;20089;-81
2022/03/20 03:44:40;;;;;;;40.70;23.48;;;;;;;;;;5100259;28;20047;-81
2022/03/20 03:47:06;;;;;;;42.10;23.40;;;;;;;;;;5100763;28;20039;-80
2022/03/20 03:49:36;;;;;;;40.90;23.15;;;;;;;;;;5118203;28;20118;-80
2022/03/20 03:52:02;;;;;;;42.97;22.08;;;;;;;;;;5100097;28;20046;-81
2022/03/20 03:54:28;;;;;;;40.60;21.95;;;;;;;;;;5124031;28;20090;-81
2022/03/20 03:56:54;;;;;;;39.42;21.80;;;;;;;;;;5100569;28;20063;-81
2022/03/20 03:59:20;;;;;;;40.65;23.33;;;;;;;;;;5122557;28;20081;-80
2022/03/20 04:01:46;;;;;;;39.10;22.10;;;;;;;;;;5101088;28;20086;-81
2022/03/20 04:04:12;;;;;;;35.78;21.38;;;;;;;;;;5117361;28;20116;-81
2022/03/20 04:06:38;;;;;;;42.97;22.13;;;;;;;;;;5122674;28;20044;-79
2022/03/20 04:09:04;;;;;;;36.08;21.38;;;;;;;;;;5130648;28;20104;-79
2022/03/20 04:11:30;;;;;;;35.42;21.80;;;;;;;;;;5101473;28;20039;-80
2022/03/20 04:13:56;;;;;;;43.83;22.33;;;;;;;;;;5118752;28;20042;-79
2022/03/20 04:16:22;;;;;;;39.00;22.05;;;;;;;;;;5113275;28;20044;-80
2022/03/20 04:18:48;;;;;;;41.88;22.73;;;;;;;;;;5123837;28;20074;-80
2022/03/20 04:21:14;;;;;;;38.45;21.92;;;;;;;;;;5103113;28;20040;-79
2022/03/20 04:23:48;;;;;;;40.30;21.58;;;;;;;;;;5111800;28;20067;-79
2022/03/20 04:26:16;;;;;;;;;;;;;;;;;;5126753;28;20036;-79
2022/03/20 04:28:44;;;;;;;39.28;22.40;;;;;;;;;;5123409;28;19959;-81
2022/03/20 04:31:15;;;;;;;37.22;21.45;;;;;;;;;;5112476;28;20040;-79
2022/03/20 04:33:41;;;;;;;38.00;22.05;;;;;;;;;;5120935;28;20097;-81
2022/03/20 04:36:09;;;;;;;42.17;22.65;;;;;;;;;;5120131;28;20362;-80
2022/03/20 04:38:35;;;;;;;36.13;21.73;;;;;;;;;;5123783;28;20032;-80
2022/03/20 04:41:01;;;;;;;44.20;22.15;;;;;;;;;;5123797;28;20051;-80
2022/03/20 04:43:27;;;;;;;37.33;21.77;;;;;;;;;;5125836;28;20088;-80
2022/03/20 04:45:53;;;;;;;36.22;22.15;;;;;;;;;;5127129;28;20039;-81
2022/03/20 04:59:18;;;;;;;37.85;20.95;;;;;;;;;;5130637;28;20035;-81
2022/03/20 05:01:43;;;;;;;39.78;21.83;;;;;;;;;;5113272;28;20027;-80
2022/03/20 05:04:10;;;;;;;38.05;22.50;;;;;;;;;;5124352;28;20047;-81
2022/03/20 05:06:36;;;;;;;42.30;21.75;;;;;;;;;;5105846;28;20386;-81
2022/03/20 05:14:31;;;;;;;39.42;21.00;;;;;;;;;;5123353;28;20035;-81
2022/03/20 05:16:57;;;;;;;38.70;21.38;;;;;;;;;;5125145;28;20105;-79
2022/03/20 05:19:23;;;;;;;39.67;21.63;;;;;;;;;;5115709;28;20035;-80
2022/03/20 05:21:49;;;;;;;38.47;20.80;;;;;;;;;;5135149;28;20099;-79
2022/03/20 05:24:16;;;;;;;41.67;22.27;;;;;;;;;;5118744;28;20064;-79
2022/03/20 05:26:42;;;;;;;41.00;21.67;;;;;;;;;;5118515;28;20051;-79
2022/03/20 05:29:08;;;;;;;36.83;21.35;;;;;;;;;;5134854;28;20042;-79
2022/03/20 05:31:34;;;;;;;42.42;22.38;;;;;;;;;;5115077;28;20055;-79
2022/03/20 05:34:01;;;;;;;42.58;21.80;;;;;;;;;;5117644;28;20036;-80
2022/03/20 05:36:29;;;;;;;38.90;21.48;;;;;;;;;;5122503;28;20078;-79
2022/03/20 05:38:58;;;;;;;40.75;22.40;;;;;;;;;;5106324;28;20050;-80
2022/03/20 05:44:11;;;;;;;37.22;20.55;;;;;;;;;;5135361;28;20039;-78
2022/03/20 05:46:38;;;;;;;36.45;21.25;;;;;;;;;;5130766;28;20047;-79
2022/03/20 05:49:05;;;;;;;38.90;21.80;;;;;;;;;;5130621;28;20040;-79
2022/03/20 05:51:31;;;;;;;43.60;21.95;;;;;;;;;;5108968;28;20044;-82
2022/03/20 05:53:58;;;;;;;40.33;20.77;;;;;;;;;;5108969;28;20046;-79
2022/03/20 05:59:09;;;;;;;40.90;21.92;;;;;;;;;;5131676;28;20059;-79
2022/03/20 06:01:35;;;;;;;38.50;21.83;;;;;;;;;;5114764;28;20040;-79
2022/03/20 06:04:03;;;;;;;40.10;21.50;;;;;;;;;;5112515;28;20409;-79
2022/03/20 06:06:30;;;;;;;39.90;21.13;;;;;;;;;;5132206;28;20091;-79
2022/03/20 06:08:56;;;;;;;36.67;20.45;;;;;;;;;;5125693;28;20048;-80
2022/03/20 06:11:22;;;;;;;35.45;20.25;;;;;;;;;;5128156;28;20046;-79
2022/03/20 06:13:48;;;;;;;39.08;20.95;;;;;;;;;;5112004;28;20082;-79
2022/03/20 06:16:18;;;;;;;37.60;20.98;;;;;;;;;;5128318;28;20043;-79
2022/03/20 06:18:44;;;;;;;39.38;21.20;;;;;;;;;;5130996;28;20037;-81
2022/03/20 06:21:13;;;;;;;42.53;21.30;;;;;;;;;;5108144;28;20104;-81
2022/03/20 06:23:39;;;;;;;44.20;20.60;;;;;;;;;;5121231;28;20042;-82
2022/03/20 06:26:06;;;;;;;36.85;20.73;;;;;;;;;;5103702;28;20035;-82
2022/03/20 06:28:33;;;;;;;41.10;21.20;;;;;;;;;;5120570;28;20384;-81
2022/03/20 06:30:59;;;;;;;36.75;21.10;;;;;;;;;;5121163;28;20066;-83
2022/03/20 06:33:25;;;;;;;37.70;20.67;;;;;;;;;;5103922;28;20032;-82
2022/03/20 06:35:52;;;;;;;36.97;20.80;;;;;;;;;;5120856;28;20362;-81
2022/03/20 06:38:18;;;;;;;38.42;21.70;;;;;;;;;;5104001;28;20073;-81
2022/03/20 06:40:44;;;;;;;37.25;21.70;;;;;;;;;;5107590;28;20043;-81
2022/03/20 06:43:10;;;;;;;44.40;22.63;;;;;;;;;;5119570;28;20123;-81
2022/03/20 06:45:36;;;;;;;41.88;20.98;;;;;;;;;;5100850;28;20070;-81
2022/03/20 06:48:03;;;;;;;38.10;21.38;;;;;;;;;;5102876;28;20036;-82
2022/03/20 06:50:29;;;;;;;40.05;21.27;;;;;;;;;;5106887;28;20067;-81
2022/03/20 06:53:00;;;;;;;38.83;21.95;;;;;;;;;;5102523;28;20401;-81
2022/03/20 06:55:26;;;;;;;37.70;21.05;;;;;;;;;;5119608;28;20031;-81
2022/03/20 06:57:52;;;;;;;40.13;21.45;;;;;;;;;;5120247;28;20042;-81
2022/03/20 07:00:18;;;;;;;39.30;21.75;;;;;;;;;;5109337;28;20047;-79
2022/03/20 07:02:44;;;;;;;41.33;22.15;;;;;;;;;;5112493;28;20040;-81
2022/03/20 07:05:11;;;;;;;35.95;21.80;;;;;;;;;;5106115;28;20069;-82
2022/03/20 07:07:37;;;;;;;42.42;21.30;;;;;;;;;;5120337;28;20406;-82
2022/03/20 07:10:04;;;;;;;40.78;21.85;;;;;;;;;;5102211;28;20058;-80
2022/03/20 07:12:30;;;;;;;43.40;21.52;;;;;;;;;;5105091;28;20059;-81
2022/03/20 07:14:57;;;;;;;40.75;22.15;;;;;;;;;;5105833;28;20062;-81
2022/03/20 07:17:24;;;;;;;39.58;21.80;;;;;;;;;;5125180;28;20065;-81
2022/03/20 07:19:50;;;;;;;40.53;22.10;;;;;;;;;;5107415;28;20100;-81
2022/03/20 07:22:19;;;;;;;37.50;21.02;;;;;;;;;;5101934;28;20050;-81
2022/03/20 07:24:45;;;;;;;37.70;20.98;;;;;;;;;;5101957;28;20035;-80
2022/03/20 07:29:56;;;;;;;39.63;21.83;;;;;;;;;;5125106;28;20036;-79
2022/03/20 07:32:22;;;;;;;42.45;21.17;;;;;;;;;;5101788;28;20035;-80
2022/03/20 07:34:48;;;;;;;40.58;22.67;;;;;;;;;;5118669;28;20381;-80
2022/03/20 07:37:16;;;;;;;41.53;22.92;;;;;;;;;;5123145;28;20035;-81
2022/03/20 07:39:42;;;;;;;37.58;21.60;;;;;;;;;;5123662;28;20043;-82
2022/03/20 07:42:09;;;;;;;42.15;23.23;;;;;;;;;;5102946;28;20051;-81
2022/03/20 07:44:36;;;;;;;37.92;21.77;;;;;;;;;;5103790;28;20032;-81
2022/03/20 07:47:03;;;;;;;41.47;22.30;;;;;;;;;;5130373;28;20039;-80
2022/03/20 07:49:29;;;;;;;40.38;22.45;;;;;;;;;;5127817;28;20040;-82
2022/03/20 07:51:57;;;;;;;41.42;22.85;;;;;;;;;;5121241;28;20061;-81
2022/03/20 07:54:24;;;;;;;41.58;22.77;;;;;;;;;;5106165;28;20035;-82
2022/03/20 07:56:50;;;;;;;39.97;22.67;;;;;;;;;;5103465;28;20038;-82
2022/03/20 07:59:16;;;;;;;40.25;22.70;;;;;;;;;;5119072;28;20040;-82
2022/03/20 08:01:42;;;;;;;41.72;22.75;;;;;;;;;;5105592;28;20366;-80
2022/03/20 08:04:09;;;;;;;40.83;22.63;;;;;;;;;;5119680;28;20054;-82
2022/03/20 08:06:35;;;;;;;41.42;23.00;;;;;;;;;;5102477;28;20032;-83
2022/03/20 08:09:01;;;;;;;40.05;23.02;;;;;;;;;;5105806;28;20072;-81
2022/03/20 08:11:28;;;;;;;43.55;24.25;;;;;;;;;;5109243;28;20118;-83
2022/03/20 08:13:54;;;;;;;45.03;23.27;;;;;;;;;;5106520;28;20032;-78
2022/03/20 08:16:25;;;;;;;45.13;23.42;;;;;;;;;;5118951;28;20043;-79
2022/03/20 08:18:51;;;;;;;50.97;23.98;;;;;;;;;;5107469;28;20047;-78
2022/03/20 08:21:17;;;;;;;42.60;22.98;;;;;;;;;;5126842;28;20073;-77
2022/03/20 08:23:43;;;;;;;42.15;23.90;;;;;;;;;;5112195;28;20035;-79
2022/03/20 08:26:10;;;;;;;42.78;24.02;;;;;;;;;;5110619;28;20435;-81
2022/03/20 08:28:39;;;;;;;40.25;22.60;;;;;;;;;;5109753;28;20097;-80
2022/03/20 08:31:06;;;;;;;41.72;24.10;;;;;;;;;;5109576;28;20043;-80
2022/03/20 08:33:32;;;;;;;42.72;24.08;;;;;;;;;;5107369;28;20409;-81
2022/03/20 08:35:58;;;;;;;48.00;25.38;;;;;;;;;;5104468;28;20039;-81
2022/03/20 08:38:24;;;;;;;44.20;24.38;;;;;;;;;;5121169;28;20077;-81
2022/03/20 08:40:50;;;;;;;41.22;23.48;;;;;;;;;;5136033;28;20048;-82
2022/03/20 08:43:16;;;;;;;46.30;24.65;;;;;;;;;;5134996;28;20039;-82
2022/03/20 08:45:43;;;;;;;42.83;23.58;;;;;;;;;;5133051;28;20046;-80
2022/03/20 08:48:09;;;;;;;40.33;23.70;;;;;;;;;;5104215;28;20468;-83
2022/03/20 08:50:35;;;;;;;45.53;25.02;;;;;;;;;;5105779;28;20059;-82
2022/03/20 08:53:01;;;;;;;40.92;24.33;;;;;;;;;;5107651;28;20043;-83
2022/03/20 08:55:27;;;;;;;49.25;25.55;;;;;;;;;;5123521;28;20051;-81
2022/03/20 08:57:54;;;;;;;42.20;24.90;;;;;;;;;;5135943;28;20035;-79
2022/03/20 09:00:22;;;;;;;40.03;24.10;;;;;;;;;;5122226;28;20049;-81
2022/03/20 09:02:48;;;;;;;43.20;25.40;;;;;;;;;;5140936;28;20058;-84
2022/03/20 09:05:16;;;;;;;41.35;24.05;;;;;;;;;;5141969;28;20039;-85
2022/03/20 09:07:42;;;;;;;42.90;25.08;;;;;;;;;;5124694;28;20024;-83
2022/03/20 09:10:09;;;;;;;46.25;25.65;;;;;;;;;;5132195;28;20043;-80
2022/03/20 09:12:35;;;;;;;47.42;27.42;;;;;;;;;;5121139;28;20040;-81
2022/03/20 09:15:03;;;;;;;49.22;26.23;;;;;;;;;;5108062;28;20066;-79
2022/03/20 09:20:15;;;;;;;44.17;26.42;;;;;;;;;;5130890;28;20125;-80
2022/03/20 09:22:41;;;;;;;45.85;25.80;;;;;;;;;;5109841;28;20040;-80
2022/03/20 09:25:07;;;;;;;43.33;26.75;;;;;;;;;;5126140;28;20043;-80
2022/03/20 09:27:34;;;;;;;49.70;27.23;;;;;;;;;;5110585;28;20067;-80
2022/03/20 09:30:01;;;;;;;44.05;27.33;;;;;;;;;;5108716;28;20099;-82
2022/03/20 09:32:27;;;;;;;47.10;27.83;;;;;;;;;;5110703;28;20090;-81
2022/03/20 09:34:53;;;;;;;46.20;27.55;;;;;;;;;;5127627;28;20047;-80
2022/03/20 09:37:19;;;;;;;45.65;26.83;;;;;;;;;;5125676;28;20039;-81
2022/03/20 09:39:45;;;;;;;47.15;28.00;;;;;;;;;;5106723;28;20062;-82
2022/03/20 09:42:11;;;;;;;46.28;27.63;;;;;;;;;;5107881;28;20044;-80
2022/03/20 09:44:40;;;;;;;47.90;28.20;;;;;;;;;;5122155;28;20050;-81
2022/03/20 09:47:12;;;;;;;47.28;27.63;;;;;;;;;;5122417;28;20051;-80
2022/03/20 09:49:38;;;;;;;45.07;26.87;;;;;;;;;;5129909;28;20036;-80
2022/03/20 09:52:06;;;;;;;45.88;28.40;;;;;;;;;;5123562;28;20046;-79
2022/03/20 09:54:32;;;;;;;47.05;27.65;;;;;;;;;;5105297;28;20031;-79
2022/03/20 09:56:59;;;;;;;49.00;29.98;;;;;;;;;;5121996;28;20036;-80
2022/03/20 09:59:25;;;;;;;44.88;28.20;;;;;;;;;;5106051;28;20040;-78
2022/03/20 10:01:51;;;;;;;57.35;29.65;;;;;;;;;;5113547;28;20054;-78
2022/03/20 10:04:18;;;;;;;46.92;28.45;;;;;;;;;;5116604;28;20063;-78
2022/03/20 10:06:45;;;;;;;46.88;28.90;;;;;;;;;;5126244;28;20035;-79
2022/03/20 10:09:11;;;;;;;51.78;29.45;;;;;;;;;;5124337;28;20047;-78
2022/03/20 10:11:47;;;;;;;49.95;28.38;;;;;;;;;;5135851;28;20367;-78
2022/03/20 10:14:20;;;;;;;48.88;30.25;;;;;;;;;;5118803;28;20042;-78
2022/03/20 10:16:48;;;;;;;45.88;29.45;;;;;;;;;;5131388;28;20081;-79
2022/03/20 10:19:23;;;;;;;47.58;29.67;;;;;;;;;;5119403;28;20462;-78
2022/03/20 10:21:53;;;;;;;51.65;31.85;;;;;;;;;;5120070;28;20050;-78
2022/03/20 10:24:19;;;;;;;53.28;31.50;;;;;;;;;;5128045;28;20049;-78
2022/03/20 10:26:45;;;;;;;49.63;30.45;;;;;;;;;;5118910;28;20039;-78
2022/03/20 10:29:15;;;;;;;47.28;30.35;;;;;;;;;;5100305;28;20054;-79
2022/03/20 10:31:50;;;;;;;52.53;33.35;;;;;;;;;;5117378;28;20040;-77
2022/03/20 10:34:17;;;;;;;52.92;33.08;;;;;;;;;;5100621;28;20046;-78
2022/03/20 10:36:43;;;;;;;52.97;34.28;;;;;;;;;;5100743;28;20447;-77
2022/03/20 10:39:27;;;;;;;52.70;33.30;;;;;;;;;;5101223;28;20069;-78
2022/03/20 10:41:53;;;;;;;52.95;34.00;;;;;;;;;;5102026;28;20071;-79
2022/03/20 10:44:20;;;;;;;53.05;33.33;;;;;;;;;;5101696;28;20095;-79
2022/03/20 10:46:57;;;;;;;56.78;33.33;;;;;;;;;;5102285;28;20051;-81
2022/03/20 10:49:23;;;;;;;54.15;33.40;;;;;;;;;;5102645;28;20032;-81
2022/03/20 10:52:03;;;;;;;54.97;34.00;;;;;;;;;;5103798;28;20352;-79
2022/03/20 10:54:45;;;;;;;50.35;33.30;;;;;;;;;;5102616;28;20040;-80
2022/03/20 10:57:12;;;;;;;50.58;33.33;;;;;;;;;;5102279;28;20040;-78
2022/03/20 10:59:39;;;;;;;52.63;34.28;;;;;;;;;;5126581;28;20043;-80
2022/03/20 11:02:08;;;;;;;56.35;33.85;;;;;;;;;;5105650;28;20031;-81
2022/03/20 11:04:34;;;;;;;56.90;34.38;;;;;;;;;;5117895;28;20051;-80
2022/03/20 11:07:06;;;;;;;49.95;32.97;;;;;;;;;;5101421;28;20066;-79
2022/03/20 11:09:32;;;;;;;55.53;33.63;;;;;;;;;;5126103;28;20108;-81
2022/03/20 11:11:58;;;;;;;53.03;32.72;;;;;;;;;;5126728;28;20036;-82
2022/03/20 11:14:25;;;;;;;51.00;32.25;;;;;;;;;;5123365;28;20036;-82
2022/03/20 11:16:52;;;;;;;49.75;32.92;;;;;;;;;;5107889;28;20023;-81
2022/03/20 11:19:22;;;;;;;56.05;33.80;;;;;;;;;;5128895;28;20036;-83
2022/03/20 11:21:48;;;;;;;51.05;33.25;;;;;;;;;;5122942;28;20106;-82
2022/03/20 11:24:17;;;;;;;51.38;32.90;;;;;;;;;;5122641;28;20439;-80
2022/03/20 11:26:45;;;;;;;55.25;32.75;;;;;;;;;;5104915;28;20054;-79
2022/03/20 11:29:12;;;;;;;54.72;33.30;;;;;;;;;;5105004;28;20035;-80
2022/03/20 11:31:38;;;;;;;59.15;34.40;;;;;;;;;;5122642;28;20042;-79
2022/03/20 11:34:05;;;;;;;50.65;31.92;;;;;;;;;;5122758;28;20109;-80
2022/03/20 11:36:32;;;;;;;53.33;33.08;;;;;;;;;;5104308;28;20040;-81
2022/03/20 11:39:10;;;;;;;56.42;33.85;;;;;;;;;;5117970;28;20046;-78
2022/03/20 11:41:36;;;;;;;50.15;33.15;;;;;;;;;;5117358;28;20050;-78
2022/03/20 11:44:11;;;;;;;50.15;33.95;;;;;;;;;;5119781;28;20063;-78
2022/03/20 11:46:37;;;;;;;53.17;33.50;;;;;;;;;;5118970;28;20070;-78
2022/03/20 11:49:17;;;;;;;54.25;34.63;;;;;;;;;;5101542;28;20039;-82
2022/03/20 11:51:52;;;;;;;56.70;34.60;;;;;;;;;;5121928;28;20039;-82
2022/03/20 11:54:18;;;;;;;53.38;33.70;;;;;;;;;;5122699;28;20450;-81
2022/03/20 11:56:44;;;;;;;53.17;33.55;;;;;;;;;;5104894;28;20047;-79
2022/03/20 11:59:29;;;;;;;54.08;33.78;;;;;;;;;;5107151;28;20047;-79
2022/03/20 12:02:01;;;;;;;54.33;34.30;;;;;;;;;;5123198;28;20063;-80
2022/03/20 12:04:29;;;;;;;54.07;34.00;;;;;;;;;;5122854;28;20112;-79
2022/03/20 12:07:07;;;;;;;54.78;34.97;;;;;;;;;;5105607;28;20048;-79
2022/03/20 12:09:53;;;;;;;52.58;34.88;;;;;;;;;;5123362;28;20386;-78
2022/03/20 12:12:27;;;;;;;56.38;35.70;;;;;;;;;;5082024;28;20036;-80
2022/03/20 12:14:54;;;;;;;56.58;34.67;;;;;;;;;;5122807;28;20041;-78
2022/03/20 12:17:21;;;;;;;55.15;36.28;;;;;;;;;;5105374;28;20043;-79
2022/03/20 12:19:53;;;;;;;58.00;35.63;;;;;;;;;;5107094;28;20355;-79
2022/03/20 12:22:25;;;;;;;55.23;35.17;;;;;;;;;;5108542;28;20459;-81
2022/03/20 12:25:03;;;;;;;59.17;35.65;;;;;;;;;;5127074;28;20814;-81
2022/03/20 12:27:32;;;;;;;54.88;35.85;;;;;;;;;;5114043;28;20061;-81
2022/03/20 12:30:10;;;;;;;52.15;35.45;;;;;;;;;;5129375;28;20043;-81
2022/03/20 12:33:03;;;;;;;56.03;34.83;;;;;;;;;;5131336;28;20112;-79
2022/03/20 12:35:29;;;;;;;54.75;33.80;;;;;;;;;;5127635;28;20069;-80
2022/03/20 12:37:56;;;;;;;56.30;35.47;;;;;;;;;;5117231;28;20451;-80
2022/03/20 12:40:24;;;;;;;55.25;34.88;;;;;;;;;;5122110;28;20122;-80
2022/03/20 12:42:59;;;;;;;51.28;34.38;;;;;;;;;;5119397;28;20435;-80
2022/03/20 12:45:26;;;;;;;55.45;33.90;;;;;;;;;;5124704;28;20043;-80
2022/03/20 12:47:53;;;;;;;54.47;33.55;;;;;;;;;;5108078;28;20051;-81
2022/03/20 12:50:19;;;;;;;57.35;33.53;;;;;;;;;;5123933;28;20031;-82
2022/03/20 12:52:45;;;;;;;54.97;34.33;;;;;;;;;;5105521;28;20043;-80
2022/03/20 12:55:11;;;;;;;53.35;33.15;;;;;;;;;;5104699;28;20165;-81
2022/03/20 12:57:41;;;;;;;48.38;32.15;;;;;;;;;;5117718;28;20030;-81
2022/03/20 13:00:08;;;;;;;57.22;34.25;;;;;;;;;;5123112;28;20035;-81
2022/03/20 13:02:35;;;;;;;50.13;32.60;;;;;;;;;;5122150;28;20055;-81
2022/03/20 13:05:07;;;;;;;50.88;32.25;;;;;;;;;;5106299;28;20039;-81
2022/03/20 13:07:35;;;;;;;48.63;31.88;;;;;;;;;;5121751;28;20089;-80
2022/03/20 13:10:01;;;;;;;51.47;33.05;;;;;;;;;;5121063;28;20441;-80
2022/03/20 13:12:27;;;;;;;52.75;32.60;;;;;;;;;;5104352;28;20530;-80
2022/03/20 13:14:58;;;;;;;49.08;33.17;;;;;;;;;;5109216;28;20088;-80
2022/03/20 13:17:25;;;;;;;52.15;32.70;;;;;;;;;;5105480;28;20039;-81
2022/03/20 13:19:52;;;;;;;57.25;34.60;;;;;;;;;;5105943;28;20491;-80
2022/03/20 13:22:18;;;;;;;56.38;34.92;;;;;;;;;;5104457;28;20069;-80
2022/03/20 13:24:46;;;;;;;51.70;33.67;;;;;;;;;;5104328;28;20043;-80
2022/03/20 13:27:13;;;;;;;49.80;33.70;;;;;;;;;;5104973;28;20100;-81
2022/03/20 13:29:42;;;;;;;52.67;34.47;;;;;;;;;;5105111;28;20040;-82
2022/03/20 13:32:10;;;;;;;53.17;33.42;;;;;;;;;;5121123;28;20059;-80
2022/03/20 13:34:46;;;;;;;54.55;33.08;;;;;;;;;;5121619;28;20036;-80
2022/03/20 13:37:13;;;;;;;50.88;31.83;;;;;;;;;;5104544;28;20510;-78
2022/03/20 13:39:44;;;;;;;49.40;32.10;;;;;;;;;;5103962;28;20039;-79
2022/03/20 13:42:16;;;;;;;49.75;30.98;;;;;;;;;;5105835;28;20043;-81
2022/03/20 13:44:42;;;;;;;49.15;30.80;;;;;;;;;;5105082;28;20048;-80
2022/03/20 13:47:09;;;;;;;46.63;29.75;;;;;;;;;;5105408;28;20039;-81
2022/03/20 13:49:35;;;;;;;46.45;29.83;;;;;;;;;;5105889;28;20054;-81
2022/03/20 13:52:02;;;;;;;42.58;29.40;;;;;;;;;;5104517;28;20035;-80
2022/03/20 13:54:29;;;;;;;46.08;29.17;;;;;;;;;;5121749;28;20035;-81
2022/03/20 13:57:10;;;;;;;44.50;29.13;;;;;;;;;;5123258;28;20528;-80
2022/03/20 13:59:49;;;;;;;43.75;28.10;;;;;;;;;;5127564;28;20040;-81
2022/03/20 14:02:15;;;;;;;43.47;28.23;;;;;;;;;;5140520;28;20032;-82
2022/03/20 14:04:41;;;;;;;42.08;27.65;;;;;;;;;;5134672;28;20048;-80
2022/03/20 14:07:18;;;;;;;43.65;27.75;;;;;;;;;;5119339;28;20417;-79
2022/03/20 14:09:44;;;;;;;40.92;26.42;;;;;;;;;;5102672;28;20065;-81
2022/03/20 14:12:29;;;;;;;41.95;25.30;;;;;;;;;;5102656;28;20040;-80
2022/03/20 14:14:59;;;;;;;36.28;24.17;;;;;;;;;;5118691;28;20043;-81
2022/03/20 14:17:50;;;;;;;38.50;23.83;;;;;;;;;;5120012;28;20032;-81
2022/03/20 14:20:22;;;;;;;40.05;24.85;;;;;;;;;;5121182;28;20047;-81
2022/03/20 14:22:55;;;;;;;38.43;24.40;;;;;;;;;;5120970;27;20132;-81
2022/03/20 14:25:34;;;;;;;39.75;24.13;;;;;;;;;;5103697;28;20351;-81
2022/03/20 14:28:04;;;;;;;35.25;23.63;;;;;;;;;;5120880;28;20071;-81
2022/03/20 14:41:30;;;;;;;36.35;22.58;;;;;;;;;;5138455;28;20023;-80
2022/03/20 14:44:13;;;;;;;34.97;22.92;;;;;;;;;;5139013;28;20054;-79
2022/03/20 14:46:39;;;;;;;37.03;23.35;;;;;;;;;;5111551;28;20091;-80
2022/03/20 14:49:06;;;;;;;36.13;23.30;;;;;;;;;;5103878;28;20047;-81
2022/03/20 14:51:32;;;;;;;36.22;22.23;;;;;;;;;;5121301;28;20113;-81
2022/03/20 14:53:58;;;;;;;33.30;22.50;;;;;;;;;;5129182;28;20032;-79
2022/03/20 14:56:25;;;;;;;38.65;21.90;;;;;;;;;;5130209;28;20118;-81
2022/03/20 14:58:51;;;;;;;36.03;23.17;;;;;;;;;;5105444;28;20040;-79
2022/03/20 15:01:18;;;;;;;38.03;22.50;;;;;;;;;;5127496;28;20092;-81
2022/03/20 15:03:45;;;;;;;35.42;22.85;;;;;;;;;;5125928;27;20051;-80
2022/03/20 15:06:11;;;;;;;34.47;23.45;;;;;;;;;;5107856;28;20046;-80
2022/03/20 15:11:24;;;;;;;38.17;23.00;;;;;;;;;;5120403;28;20036;-81